Avery, Oklahoma
Current Conditions -  °F | °C
As of 12:15 PM on Friday 31 Oct 2014 (Local Time) from KCUH Reporting Station
Clear Clear  
Wind Chill: 11°   Ceiling: Unl
Heat Index: 11°   Visibility: 10mi
Dew Point:   Wind: 15mph
Humidity: 58%   Direction: 360°N
Pressure: 30.44"   Gusts: 24mph
Location:  35.9968°N, 96.7376°W
Report Text: KCUH 311715Z AUTO 36013G21KT 10SM CLR 11/03 A3044 RMK AO2
Loading
Personal Weather Stations






























Interactive Weather Map
Tropical Storm Tracking
New forecast layout! Learn more

10-Day Weather Forecast

Advertisements
Track Severe Weather on mobile